Time;durP1;ratioP1;P1;durP2;ratioP2;P2;SDS_P1;SDS_P2;PMS_P1;PMS_P2;Temp;Humidity;BMP_temperature;BMP_pressure;BME280_temperature;BME280_humidity;BME280_pressure;Samples;Min_cycle;Max_cycle;Signal;HPM_P1;HPM_P2
2021/12/09 00:01:37;;;;;;;34.15;15.70;;;;;;;2.91;69.78;99153.72;4351284;32;33155;-88
2021/12/09 00:04:10;;;;;;;36.50;15.68;;;;;;;3.02;69.55;99151.69;4351401;32;32812;-88
2021/12/09 00:06:38;;;;;;;34.50;14.80;;;;;;;2.99;69.58;99138.72;4353226;32;32614;-88
2021/12/09 00:09:12;;;;;;;42.15;16.67;;;;;;;2.87;69.93;99125.97;4363859;32;34690;-88
2021/12/09 00:11:45;;;;;;;38.17;16.25;;;;;;;2.73;70.71;99140.19;4363414;32;34801;-89
2021/12/09 00:14:26;;;;;;;33.38;16.37;;;;;;;3.12;69.44;99153.19;4338898;32;32259;-88
2021/12/09 00:16:57;;;;;;;40.20;16.70;;;;;;;2.90;70.28;99152.84;4370729;32;32724;-89
2021/12/09 00:19:25;;;;;;;35.85;16.02;;;;;;;3.24;68.97;99162.50;4339156;32;34177;-89
2021/12/09 00:21:53;;;;;;;33.03;15.88;;;;;;;3.18;69.00;99166.09;4351109;32;34309;-88
2021/12/09 00:24:21;;;;;;;35.63;17.35;;;;;;;3.05;69.38;99167.28;4363456;32;31868;-90
2021/12/09 00:26:49;;;;;;;33.55;15.85;;;;;;;3.12;69.31;99166.22;4338897;32;32307;-89
2021/12/09 00:29:17;;;;;;;36.83;16.52;;;;;;;3.14;69.38;99167.06;4350600;32;33269;-89
2021/12/09 00:31:47;;;;;;;36.95;16.92;;;;;;;3.06;69.72;99164.63;4351014;32;33551;-89
2021/12/09 00:34:19;;;;;;;39.22;16.85;;;;;;;3.51;67.92;99145.25;4371089;32;33006;-89
2021/12/09 00:36:58;;;;;;;44.03;17.20;;;;;;;2.62;70.57;99136.12;4353642;32;32233;-90
2021/12/09 00:39:28;;;;;;;32.28;15.35;;;;;;;2.75;70.65;99122.78;4352921;32;32401;-89
2021/12/09 00:41:56;;;;;;;45.17;16.30;;;;;;;2.88;69.80;99117.25;4368166;32;34073;-89
2021/12/09 00:44:24;;;;;;;34.40;17.52;;;;;;;2.48;71.20;99131.19;4377890;32;32171;-90
2021/12/09 00:46:52;;;;;;;38.08;16.65;;;;;;;2.36;71.28;99124.50;4361871;32;34009;-89
2021/12/09 00:49:20;;;;;;;33.67;15.38;;;;;;;2.59;71.14;99118.78;4379903;32;32625;-89
2021/12/09 00:51:49;;;;;;;33.20;16.12;;;;;;;2.24;72.14;99115.19;4367501;32;33390;-88
2021/12/09 00:54:17;;;;;;;36.13;15.65;;;;;;;2.42;71.61;99103.53;4359451;32;35214;-88
2021/12/09 00:56:44;;;;;;;40.12;18.00;;;;;;;2.62;70.97;99095.28;4366325;32;32212;-88
2021/12/09 00:59:13;;;;;;;35.45;15.60;;;;;;;2.98;69.54;99083.09;4367290;32;33117;-87
2021/12/09 01:01:41;;;;;;;41.63;16.15;;;;;;;2.53;70.84;99090.25;4379821;32;34826;-88
2021/12/09 01:04:10;;;;;;;40.30;16.20;;;;;;;2.83;70.35;99086.94;4384549;32;34082;-88
2021/12/09 01:06:38;;;;;;;40.45;16.73;;;;;;;2.88;70.15;99075.53;4396223;32;32660;-87
2021/12/09 01:09:06;;;;;;;36.95;16.75;;;;;;;2.81;70.43;99083.53;4363854;32;32609;-87
2021/12/09 01:11:34;;;;;;;44.15;16.42;;;;;;;2.87;70.36;99099.91;4379741;32;34340;-87
2021/12/09 01:14:02;;;;;;;34.58;15.65;;;;;;;2.88;69.80;99110.28;4372390;32;32435;-87
2021/12/09 01:16:30;;;;;;;40.70;17.67;;;;;;;3.03;69.57;99114.28;4365579;32;33087;-88
2021/12/09 01:18:58;;;;;;;35.90;15.95;;;;;;;2.81;70.10;99114.81;4401277;32;34500;-88
2021/12/09 01:21:25;;;;;;;36.47;16.17;;;;;;;2.76;70.31;99097.56;4372302;32;33047;-87
2021/12/09 01:23:53;;;;;;;35.22;15.55;;;;;;;2.39;71.67;99107.94;4365476;32;33294;-87
2021/12/09 01:26:23;;;;;;;45.63;17.58;;;;;;;2.62;71.18;99103.09;4377510;32;33479;-89
2021/12/09 01:28:58;;;;;;;37.13;16.02;;;;;;;2.68;70.62;99105.53;4365661;32;33142;-88
2021/12/09 01:31:32;;;;;;;39.05;17.17;;;;;;;2.83;70.21;99104.34;4368088;32;32485;-88
2021/12/09 01:34:02;;;;;;;39.97;16.60;;;;;;;2.87;69.89;99100.75;4379151;32;32664;-89
2021/12/09 01:36:32;;;;;;;37.15;17.65;;;;;;;2.87;69.83;99094.69;4367753;32;32407;-88
2021/12/09 01:39:02;;;;;;;46.85;17.98;;;;;;;2.69;70.03;99073.38;4379986;32;32722;-89
2021/12/09 01:41:30;;;;;;;42.38;17.85;;;;;;;2.51;70.92;99077.25;4368757;32;32776;-89
2021/12/09 01:43:58;;;;;;;37.60;16.50;;;;;;;2.43;71.10;99071.37;4364607;32;32665;-89
2021/12/09 01:46:26;;;;;;;39.53;16.70;;;;;;;2.69;70.01;99055.13;4393805;32;32988;-89
2021/12/09 01:48:54;;;;;;;43.45;15.32;;;;;;;2.51;70.88;99052.94;4368066;32;33381;-88
2021/12/09 01:51:22;;;;;;;34.70;15.60;;;;;;;2.43;71.25;99047.94;4368487;32;33231;-91
2021/12/09 01:54:14;;;;;;;42.88;17.15;;;;;;;2.48;71.03;99058.25;4390928;32;31926;-92
2021/12/09 01:56:53;;;;;;;46.78;17.02;;;;;;;2.23;72.05;99037.97;4408267;32;33363;-92
2021/12/09 01:59:37;;;;;;;45.10;16.65;;;;;;;2.27;72.23;99029.16;4421438;32;34306;-89
2021/12/09 02:02:05;;;;;;;36.58;15.77;;;;;;;2.68;70.41;99029.09;4409557;32;32859;-89
2021/12/09 02:04:33;;;;;;;37.28;16.00;;;;;;;2.76;70.36;99024.56;4409680;32;33605;-89
2021/12/09 02:07:02;;;;;;;42.53;16.75;;;;;;;2.43;71.44;99039.25;4395325;32;32775;-89
2021/12/09 02:09:29;;;;;;;42.97;17.27;;;;;;;2.79;69.95;99025.31;4401694;32;33060;-89
2021/12/09 02:11:58;;;;;;;36.38;14.27;;;;;;;2.20;72.13;99029.34;4404688;32;32549;-88
2021/12/09 02:14:25;;;;;;;33.17;14.85;;;;;;;2.51;70.72;99006.03;4396575;32;34073;-88
2021/12/09 02:16:53;;;;;;;33.47;15.95;;;;;;;2.04;72.37;99001.06;4409970;32;33157;-89
2021/12/09 02:19:21;;;;;;;31.83;15.02;;;;;;;1.87;73.32;98986.69;4394261;32;31866;-89
2021/12/09 02:21:49;;;;;;;39.53;15.98;;;;;;;1.89;73.23;98997.91;4396463;32;33308;-89
2021/12/09 02:24:17;;;;;;;44.30;17.95;;;;;;;2.20;71.88;99009.38;4405011;32;32348;-89
2021/12/09 02:26:49;;;;;;;36.28;14.10;;;;;;;2.16;71.71;99012.94;4397290;32;33938;-89
2021/12/09 02:29:19;;;;;;;38.70;15.43;;;;;;;2.20;71.54;99014.56;4405946;32;33098;-89
2021/12/09 02:31:48;;;;;;;32.47;14.95;;;;;;;2.41;71.06;99025.37;4398818;32;32247;-88
2021/12/09 02:34:16;;;;;;;38.05;15.75;;;;;;;1.71;73.30;99025.16;4395137;32;33870;-89
2021/12/09 02:36:44;;;;;;;44.33;14.87;;;;;;;2.08;72.37;99011.38;4395964;32;32430;-88
2021/12/09 02:39:14;;;;;;;40.10;13.85;;;;;;;1.88;72.51;98997.03;4408406;32;33796;-89
2021/12/09 02:41:44;;;;;;;41.90;15.65;;;;;;;1.67;73.45;99011.38;4403616;32;34102;-89
2021/12/09 02:44:16;;;;;;;31.75;13.32;;;;;;;1.67;73.89;99019.19;4408533;32;33541;-89
2021/12/09 02:46:48;;;;;;;36.85;14.30;;;;;;;2.03;72.55;98994.09;4396006;32;33820;-86
2021/12/09 02:49:18;;;;;;;40.42;15.98;;;;;;;2.13;71.93;99026.00;4400008;32;34859;-86
2021/12/09 02:51:48;;;;;;;34.65;14.85;;;;;;;2.13;72.43;99048.59;4407635;32;33229;-86
2021/12/09 02:54:17;;;;;;;35.75;13.98;;;;;;;2.13;72.00;99054.66;4394335;32;32968;-86
2021/12/09 02:56:48;;;;;;;31.35;14.27;;;;;;;2.25;71.61;99036.16;4420110;32;31815;-86
2021/12/09 02:59:17;;;;;;;37.75;14.65;;;;;;;2.43;70.67;99002.78;4396821;32;34679;-88
2021/12/09 03:01:57;;;;;;;31.90;14.25;;;;;;;2.16;71.67;99012.94;4391000;32;34057;-90
2021/12/09 03:04:46;;;;;;;31.55;14.95;;;;;;;2.13;72.26;99014.72;4386646;32;31837;-89
2021/12/09 03:07:24;;;;;;;32.22;14.43;;;;;;;1.92;73.00;99014.31;4400099;32;33368;-88
2021/12/09 03:10:20;;;;;;;35.45;13.48;;;;;;;1.70;74.03;99011.28;4397764;32;32724;-92
2021/12/09 03:12:50;;;;;;;38.70;13.55;;;;;;;2.08;72.15;98986.19;4399140;32;33168;-88
2021/12/09 03:15:19;;;;;;;33.17;14.18;;;;;;;2.27;71.93;98992.69;4387621;32;34350;-90
2021/12/09 03:17:47;;;;;;;31.73;13.65;;;;;;;2.34;71.87;98998.62;4399070;32;33678;-88
2021/12/09 03:20:23;;;;;;;33.05;14.35;;;;;;;2.02;73.06;99022.78;4383563;32;32384;-90
2021/12/09 03:22:53;;;;;;;29.20;11.95;;;;;;;2.23;72.16;99024.06;4397724;32;32961;-86
2021/12/09 03:25:20;;;;;;;31.12;13.20;;;;;;;2.31;71.84;99028.19;4393503;32;33910;-87
2021/12/09 03:27:49;;;;;;;32.72;12.15;;;;;;;1.97;73.35;99022.88;4400079;32;34008;-87
2021/12/09 03:30:19;;;;;;;24.67;10.98;;;;;;;2.52;71.39;99020.81;4394091;32;33207;-86
2021/12/09 03:32:47;;;;;;;28.15;11.95;;;;;;;2.33;71.95;99011.66;4386462;32;33323;-87
2021/12/09 03:35:15;;;;;;;28.67;12.23;;;;;;;2.26;72.12;99001.41;4392318;32;33435;-86
2021/12/09 03:37:43;;;;;;;27.52;11.52;;;;;;;1.99;73.42;98987.28;4396444;32;32825;-86
2021/12/09 03:40:15;;;;;;;35.05;13.05;;;;;;;1.84;74.20;99002.34;4386877;32;33214;-88
2021/12/09 03:42:43;;;;;;;29.35;12.85;;;;;;;1.86;74.38;99008.41;4400753;32;33638;-89
2021/12/09 03:45:11;;;;;;;30.33;13.02;;;;;;;2.39;72.47;99001.13;4394271;32;33736;-88
2021/12/09 03:47:40;;;;;;;30.10;12.20;;;;;;;2.29;72.87;99014.38;4399625;32;36801;-88
2021/12/09 03:50:12;;;;;;;30.00;12.52;;;;;;;2.61;71.58;99020.59;4381852;32;34562;-89
2021/12/09 03:52:40;;;;;;;29.80;12.63;;;;;;;2.55;71.60;99010.28;4380804;32;33269;-90
2021/12/09 03:55:10;;;;;;;27.20;11.07;;;;;;;2.21;72.90;99005.88;4406236;32;32254;-90
2021/12/09 03:57:58;;;;;;;32.55;12.82;;;;;;;2.22;73.12;99010.16;4404288;32;32501;-90
2021/12/09 04:00:36;;;;;;;31.23;13.02;;;;;;;2.41;72.26;99014.97;4396073;32;32580;-90
2021/12/09 04:03:41;;;;;;;27.90;11.85;;;;;;;2.51;71.51;99024.28;4368952;32;32666;-89
2021/12/09 04:06:09;;;;;;;30.05;12.25;;;;;;;2.36;72.55;99015.06;4382218;32;33133;-90
2021/12/09 04:09:05;;;;;;;22.55;10.25;;;;;;;2.83;70.40;99000.91;4403068;32;32350;-93
2021/12/09 04:11:46;;;;;;;24.90;11.80;;;;;;;2.25;72.48;99007.50;4412187;32;33381;-91
2021/12/09 04:14:31;;;;;;;29.40;12.82;;;;;;;2.28;72.50;99002.25;4417569;32;32947;-88
2021/12/09 04:16:59;;;;;;;34.90;13.62;;;;;;;2.31;72.57;99001.31;4411196;32;32769;-88
2021/12/09 04:19:27;;;;;;;24.27;11.52;;;;;;;2.21;72.81;98995.44;4414696;32;32227;-89
2021/12/09 04:21:54;;;;;;;29.20;11.93;;;;;;;2.47;71.61;98996.56;4399523;32;33427;-89
2021/12/09 04:24:22;;;;;;;20.52;10.15;;;;;;;2.68;70.99;98993.47;4414041;32;33782;-90
2021/12/09 04:26:52;;;;;;;29.55;12.40;;;;;;;2.67;71.36;99002.19;4418246;32;32020;-91
2021/12/09 04:29:40;;;;;;;27.30;11.68;;;;;;;2.66;71.30;99018.72;4416389;32;31900;-89
2021/12/09 04:32:08;;;;;;;27.37;12.18;;;;;;;2.65;71.13;99026.56;4392878;32;32932;-89
2021/12/09 04:34:36;;;;;;;27.08;13.07;;;;;;;2.79;70.62;99014.91;4408723;32;33263;-89
2021/12/09 04:37:04;;;;;;;29.23;11.27;;;;;;;2.94;69.60;99015.41;4417630;32;32602;-89
2021/12/09 04:39:32;;;;;;;31.25;11.18;;;;;;;2.82;70.03;99001.81;4392615;32;32927;-88
2021/12/09 04:42:03;;;;;;;24.17;12.15;;;;;;;2.78;70.43;98997.56;4413464;32;33011;-88
2021/12/09 04:44:31;;;;;;;27.87;12.32;;;;;;;2.48;71.51;98985.28;4397485;32;34667;-88
2021/12/09 04:47:02;;;;;;;28.40;11.73;;;;;;;2.58;71.37;98989.38;4381239;32;33120;-87
2021/12/09 04:49:30;;;;;;;21.83;10.32;;;;;;;2.69;70.54;98982.13;4408829;32;32462;-88
2021/12/09 04:52:01;;;;;;;23.98;11.10;;;;;;;2.30;71.75;98984.81;4404810;32;33449;-89
2021/12/09 04:54:29;;;;;;;32.75;11.77;;;;;;;2.67;71.25;98985.69;4405315;32;33481;-90
2021/12/09 04:56:57;;;;;;;27.77;11.60;;;;;;;2.77;70.67;98979.34;4398073;32;33794;-90
2021/12/09 04:59:25;;;;;;;26.70;10.35;;;;;;;2.93;69.84;98985.03;4411310;32;32762;-90
2021/12/09 05:01:53;;;;;;;25.15;12.07;;;;;;;2.72;70.45;98966.44;4415251;32;33464;-90
2021/12/09 05:04:21;;;;;;;24.12;10.90;;;;;;;2.69;70.77;98976.94;4412447;32;32598;-90
2021/12/09 05:06:49;;;;;;;23.17;11.05;;;;;;;2.81;70.27;98975.78;4404947;32;32210;-88
2021/12/09 05:09:18;;;;;;;26.17;10.13;;;;;;;3.07;69.11;98980.28;4411271;32;32178;-87
2021/12/09 05:14:18;;;;;;;26.20;11.90;;;;;;;2.80;70.03;98974.94;4403244;32;32947;-88
2021/12/09 05:16:49;;;;;;;26.95;11.88;;;;;;;3.18;68.65;98975.69;4416749;32;33802;-88
2021/12/09 05:19:16;;;;;;;18.92;10.02;;;;;;;2.68;70.53;98995.22;4418039;32;31692;-88
2021/12/09 05:21:44;;;;;;;22.60;11.40;;;;;;;2.76;70.23;98991.53;4406432;32;32522;-88
2021/12/09 05:24:14;;;;;;;23.95;10.93;;;;;;;3.15;68.75;98983.56;4400125;32;34422;-88
2021/12/09 05:26:49;;;;;;;21.45;9.27;;;;;;;3.24;68.27;98988.53;4399578;32;33708;-88
2021/12/09 05:29:21;;;;;;;23.15;8.82;;;;;;;3.12;68.92;98988.00;4419515;32;31923;-88
2021/12/09 05:32:08;;;;;;;19.60;9.75;;;;;;;3.25;68.02;98969.38;4406693;32;33199;-88
2021/12/09 05:34:48;;;;;;;19.40;9.27;;;;;;;2.95;69.00;98968.44;4398868;32;33600;-91
2021/12/09 05:37:20;;;;;;;18.98;10.40;;;;;;;2.81;69.68;98974.03;4411725;32;33769;-91
2021/12/09 05:40:07;;;;;;;19.48;8.63;;;;;;;2.87;69.47;98966.94;4415414;32;33656;-91
2021/12/09 05:42:35;;;;;;;18.83;9.07;;;;;;;2.81;69.56;98953.16;4408655;32;33621;-93
2021/12/09 05:45:46;;;;;;;20.30;9.10;;;;;;;3.01;68.96;98946.56;4362829;32;33101;-89
2021/12/09 05:48:14;;;;;;;20.30;10.10;;;;;;;2.61;70.22;98952.81;4361655;32;33814;-91
2021/12/09 05:50:43;;;;;;;21.55;11.55;;;;;;;2.82;69.57;98939.22;4372429;32;32557;-89
2021/12/09 05:53:11;;;;;;;19.15;10.52;;;;;;;2.82;69.53;98925.34;4361143;32;34210;-88
2021/12/09 05:55:43;;;;;;;23.27;10.63;;;;;;;2.44;70.64;98918.50;4373077;32;34520;-87
2021/12/09 05:58:14;;;;;;;22.90;10.32;;;;;;;2.62;70.49;98912.84;4353524;32;33096;-87
2021/12/09 06:00:48;;;;;;;22.33;10.48;;;;;;;2.19;71.78;98910.44;4348388;32;33028;-86
2021/12/09 06:03:19;;;;;;;22.62;11.57;;;;;;;2.50;70.44;98918.34;4360546;32;32949;-87
2021/12/09 06:05:48;;;;;;;23.20;10.20;;;;;;;2.52;71.05;98911.34;4372286;32;33744;-88
2021/12/09 06:08:17;;;;;;;23.20;11.98;;;;;;;2.38;71.73;98924.72;4350262;32;32801;-87
2021/12/09 06:10:45;;;;;;;27.67;11.65;;;;;;;2.73;70.05;98918.59;4360421;32;32841;-87
2021/12/09 06:13:13;;;;;;;27.98;12.70;;;;;;;2.65;70.65;98917.09;4371981;32;33928;-88
2021/12/09 06:15:42;;;;;;;25.02;11.52;;;;;;;2.42;71.65;98910.72;4360454;32;33635;-87
2021/12/09 06:18:09;;;;;;;25.48;11.60;;;;;;;2.72;70.79;98919.50;4354078;32;32923;-87
2021/12/09 06:20:37;;;;;;;26.17;12.85;;;;;;;2.44;71.36;98908.94;4360273;32;32037;-87
2021/12/09 06:23:06;;;;;;;28.85;13.45;;;;;;;2.46;72.08;98901.91;4360807;32;33350;-87
2021/12/09 06:25:34;;;;;;;24.65;12.00;;;;;;;2.18;73.21;98901.75;4348053;32;34581;-87
2021/12/09 06:28:02;;;;;;;31.92;13.82;;;;;;;2.30;72.78;98906.66;4360444;32;33546;-89
2021/12/09 06:30:31;;;;;;;28.20;12.98;;;;;;;2.23;73.19;98899.91;4360912;32;32691;-91
2021/12/09 06:33:10;;;;;;;25.45;13.25;;;;;;;2.60;71.69;98893.75;4377957;32;32761;-88
2021/12/09 06:35:39;;;;;;;25.80;13.45;;;;;;;2.26;72.93;98899.81;4390559;32;34682;-89
2021/12/09 06:38:16;;;;;;;24.63;10.82;;;;;;;2.62;71.55;98897.19;4367773;32;32695;-88
2021/12/09 06:40:45;;;;;;;26.52;12.77;;;;;;;2.47;71.75;98879.31;4366279;32;32315;-89
2021/12/09 06:43:13;;;;;;;30.58;13.30;;;;;;;2.52;71.58;98874.88;4378993;32;32763;-89
2021/12/09 06:45:41;;;;;;;23.02;11.43;;;;;;;2.69;70.81;98877.88;4377191;32;33053;-89
2021/12/09 06:48:10;;;;;;;27.15;11.40;;;;;;;2.37;71.99;98890.88;4354747;32;32904;-92
2021/12/09 06:51:01;;;;;;;30.25;12.90;;;;;;;2.41;71.99;98889.91;4395942;32;32744;-92
2021/12/09 06:53:52;;;;;;;27.52;12.20;;;;;;;2.46;71.75;98893.25;4404145;32;32541;-92
2021/12/09 06:56:32;;;;;;;26.67;11.12;;;;;;;2.48;71.97;98894.09;4432629;32;33703;-92
2021/12/09 06:59:24;;;;;;;26.80;12.70;;;;;;;2.65;71.14;98915.34;4405848;32;32695;-92
2021/12/09 07:02:06;;;;;;;28.42;13.02;;;;;;;2.53;71.91;98918.28;4361070;32;32828;-91
2021/12/09 07:04:58;;;;;;;34.30;12.93;;;;;;;2.54;71.32;98926.03;4385004;32;33442;-92
2021/12/09 07:07:38;;;;;;;31.60;13.02;;;;;;;2.17;73.40;98925.22;4400646;32;32852;-92
2021/12/09 07:10:30;;;;;;;;;;;;;;;2.54;71.73;98920.84;4371826;32;32951;-92
2021/12/09 07:13:09;;;;;;;25.88;11.65;;;;;;;2.81;70.50;98924.47;4392347;32;32030;-89
2021/12/09 07:15:38;;;;;;;21.23;9.38;;;;;;;2.46;71.83;98927.13;4362935;32;32660;-90
2021/12/09 07:18:06;;;;;;;27.90;11.57;;;;;;;2.59;71.47;98930.28;4390459;32;32976;-91
2021/12/09 07:20:34;;;;;;;21.05;10.18;;;;;;;2.73;70.94;98920.38;4362802;32;33572;-91
2021/12/09 07:23:29;;;;;;;30.23;12.90;;;;;;;2.71;70.61;98930.84;4355081;32;32808;-89
2021/12/09 07:26:01;;;;;;;27.43;11.20;;;;;;;3.05;69.82;98920.38;4351104;32;34207;-91
2021/12/09 07:29:00;;;;;;;23.00;10.43;;;;;;;3.03;69.66;98897.81;4362761;32;32809;-92
2021/12/09 07:31:39;;;;;;;23.42;10.40;;;;;;;3.16;69.08;98907.00;4381199;32;32597;-93
2021/12/09 07:34:30;;;;;;;25.88;10.73;;;;;;;2.96;69.64;98891.94;4387800;32;32529;-93
2021/12/09 07:37:09;;;;;;;26.35;10.48;;;;;;;2.76;70.47;98889.00;4382789;32;33374;-93
2021/12/09 07:40:01;;;;;;;19.40;9.93;;;;;;;2.51;71.36;98892.22;4371485;32;33687;-91
2021/12/09 07:42:40;;;;;;;20.12;9.45;;;;;;;2.87;70.32;98886.09;4407774;32;32852;-90
2021/12/09 07:45:37;;;;;;;26.40;9.77;;;;;;;2.48;71.92;98896.69;4390327;32;32520;-90
2021/12/09 07:48:05;;;;;;;29.20;10.43;;;;;;;2.09;73.51;98886.38;4379448;32;32895;-90
2021/12/09 07:51:03;;;;;;;25.80;11.45;;;;;;;1.78;74.44;98902.69;4397917;32;33493;-93
2021/12/09 07:53:42;;;;;;;29.33;10.25;;;;;;;2.22;73.39;98876.47;4394942;32;33165;-92
2021/12/09 07:56:43;;;;;;;23.92;11.30;;;;;;;2.04;73.94;98885.59;4387460;32;32446;-91
2021/12/09 07:59:27;;;;;;;19.35;9.75;;;;;;;2.24;73.48;98891.19;4393052;32;33068;-90
2021/12/09 08:01:55;;;;;;;23.45;11.00;;;;;;;1.94;74.03;98877.16;4402614;32;32496;-92
2021/12/09 08:04:50;;;;;;;25.85;10.05;;;;;;;2.01;74.26;98867.47;4424370;32;34058;-91
2021/12/09 08:07:29;;;;;;;24.92;11.05;;;;;;;2.11;74.02;98879.34;4385168;32;32536;-92
2021/12/09 08:10:23;;;;;;;23.75;11.18;;;;;;;2.19;73.89;98861.81;4389256;32;33775;-93
2021/12/09 08:13:13;;;;;;;23.15;10.15;;;;;;;2.53;72.65;98869.62;4402981;32;33107;-91
2021/12/09 08:15:49;;;;;;;26.55;10.85;;;;;;;2.13;73.76;98877.56;4391175;32;33566;-91
2021/12/09 08:18:53;;;;;;;;;;;;;;;1.93;74.09;98866.78;4381067;32;33865;-88
2021/12/09 08:21:23;;;;;;;24.25;9.55;;;;;;;2.11;73.44;98874.16;4379412;32;33951;-89
2021/12/09 08:23:51;;;;;;;25.48;9.88;;;;;;;2.08;73.69;98869.00;4377303;32;33475;-90
2021/12/09 08:26:21;;;;;;;24.27;10.73;;;;;;;2.29;73.07;98868.50;4377668;32;33885;-89
2021/12/09 08:28:50;;;;;;;28.42;11.60;;;;;;;2.40;72.94;98865.59;4377680;32;33790;-90
2021/12/09 08:31:32;;;;;;;21.65;9.02;;;;;;;2.53;72.46;98866.16;4378036;32;32932;-90
2021/12/09 08:34:11;;;;;;;22.77;11.77;;;;;;;2.45;71.96;98862.88;4365574;32;33894;-94
2021/12/09 08:41:18;;;;;;;17.33;9.32;;;;;;;2.22;73.41;98843.47;4409487;32;34061;-94
2021/12/09 08:44:09;;;;;;;25.62;9.80;;;;;;;2.35;73.04;98848.38;4372433;32;32769;-95
2021/12/09 08:46:49;;;;;;;17.65;8.75;;;;;;;2.40;72.72;98854.34;4372572;32;33590;-94
2021/12/09 08:49:48;;;;;;;17.77;10.20;;;;;;;2.14;73.55;98858.47;4363872;32;32854;-94
2021/12/09 08:52:27;;;;;;;22.77;10.90;;;;;;;2.25;73.24;98846.03;4399695;32;32613;-93
2021/12/09 08:55:19;;;;;;;20.92;10.65;;;;;;;2.47;72.50;98845.44;4399187;32;32799;-94
2021/12/09 08:57:58;;;;;;;27.40;10.95;;;;;;;2.31;73.13;98843.25;4412711;32;33815;-95
2021/12/09 09:00:53;;;;;;;24.95;10.23;;;;;;;2.56;72.71;98853.91;4422353;32;33671;-93
2021/12/09 09:03:32;;;;;;;24.67;11.00;;;;;;;2.25;72.98;98851.22;4427391;32;32621;-94
2021/12/09 09:06:24;;;;;;;23.48;9.68;;;;;;;2.78;71.89;98842.87;4382439;32;32533;-94
2021/12/09 09:09:06;;;;;;;24.87;11.52;;;;;;;2.72;71.60;98856.09;4408307;32;32928;-95
2021/12/09 09:11:57;;;;;;;18.80;8.27;;;;;;;2.36;73.18;98852.69;4385212;32;34109;-93
2021/12/09 09:14:37;;;;;;;27.40;10.90;;;;;;;2.72;72.36;98864.78;4352279;32;28938;-94
2021/12/09 09:17:28;;;;;;;27.43;10.07;;;;;;;2.46;73.09;98857.63;4392824;32;33826;-95
2021/12/09 09:20:10;;;;;;;27.30;11.48;;;;;;;2.51;73.06;98852.28;4397580;32;33001;-95
2021/12/09 09:23:02;;;;;;;21.92;10.35;;;;;;;2.82;72.42;98853.19;4378369;32;33446;-93
2021/12/09 09:25:42;;;;;;;21.90;9.80;;;;;;;2.70;72.09;98871.75;4408344;32;33241;-94
2021/12/09 09:28:33;;;;;;;23.20;11.20;;;;;;;2.76;72.75;98871.63;4378272;32;33356;-93
2021/12/09 09:31:13;;;;;;;24.75;9.88;;;;;;;2.70;72.97;98863.09;4368285;32;33073;-92
2021/12/09 09:34:05;;;;;;;23.30;9.38;;;;;;;2.54;73.89;98836.59;4354474;32;33134;-94
2021/12/09 09:36:45;;;;;;;24.80;11.27;;;;;;;2.21;74.84;98830.50;4374192;32;33727;-94
2021/12/09 09:39:42;;;;;;;22.10;9.83;;;;;;;2.66;73.82;98832.78;4429205;32;32947;-94
2021/12/09 09:42:45;;;;;;;19.80;10.02;;;;;;;2.81;73.11;98815.00;4428076;32;33227;-93
2021/12/09 09:45:34;;;;;;;30.88;12.02;;;;;;;2.85;72.88;98814.88;4420915;32;32324;-94
2021/12/09 09:48:16;;;;;;;26.37;11.95;;;;;;;2.68;73.65;98797.97;4369667;32;32403;-92
2021/12/09 09:51:09;;;;;;;29.63;11.27;;;;;;;2.50;74.38;98796.72;4400373;32;32115;-95
2021/12/09 09:53:49;;;;;;;18.55;8.77;;;;;;;2.59;74.11;98803.44;4391966;32;32926;-94
2021/12/09 09:56:42;;;;;;;19.60;9.40;;;;;;;2.49;74.14;98791.56;4361782;32;33145;-92
2021/12/09 09:59:21;;;;;;;23.55;9.93;;;;;;;2.39;74.73;98787.50;4422499;32;33183;-90
2021/12/09 10:02:11;;;;;;;21.45;9.10;;;;;;;2.66;74.11;98773.72;4376520;32;34529;-88
2021/12/09 10:05:01;;;;;;;21.37;10.18;;;;;;;2.86;73.57;98775.75;4376489;32;32943;-90
2021/12/09 10:07:37;;;;;;;;;;;;;;;2.59;74.70;98766.09;4357174;32;33047;-90
2021/12/09 10:10:09;;;;;;;25.23;9.50;;;;;;;2.99;73.44;98776.22;4371117;32;32494;-86
2021/12/09 10:12:53;;;;;;;21.83;11.07;;;;;;;2.80;73.63;98768.97;4366674;32;33065;-89
2021/12/09 10:15:39;;;;;;;25.88;9.85;;;;;;;2.69;74.28;98757.97;4355920;32;33001;-88
2021/12/09 10:18:08;;;;;;;20.10;9.32;;;;;;;2.89;73.82;98743.50;4374988;32;33091;-88
2021/12/09 10:20:44;;;;;;;24.67;10.07;;;;;;;2.99;73.23;98750.16;4376619;32;34140;-88
2021/12/09 10:23:42;;;;;;;20.45;9.07;;;;;;;3.17;72.65;98754.81;4364335;32;32665;-89
2021/12/09 10:26:11;;;;;;;25.45;11.85;;;;;;;2.77;73.37;98742.97;4375229;32;34278;-89
2021/12/09 10:28:47;;;;;;;26.00;9.70;;;;;;;3.12;72.28;98741.06;4379547;32;33044;-89
2021/12/09 10:31:20;;;;;;;25.17;10.98;;;;;;;2.93;73.21;98739.91;4362910;32;32109;-90
2021/12/09 10:34:01;;;;;;;19.98;10.48;;;;;;;3.21;72.24;98739.94;4346454;32;32514;-90
2021/12/09 10:36:54;;;;;;;23.15;10.48;;;;;;;3.16;72.32;98758.34;4364496;32;32859;-89
2021/12/09 10:39:23;;;;;;;;;;;;;;;3.05;71.94;98750.00;4348440;32;33648;-90
2021/12/09 10:42:18;;;;;;;21.52;10.18;;;;;;;3.06;72.48;98760.38;4352049;32;32301;-90
2021/12/09 10:45:05;;;;;;;21.48;9.25;;;;;;;3.33;71.96;98768.28;4379337;32;32260;-90
2021/12/09 10:48:25;;;;;;;21.20;10.65;;;;;;;3.21;72.04;98766.03;4376397;32;32551;-92
2021/12/09 10:51:22;;;;;;;26.73;9.20;;;;;;;3.32;72.04;98767.41;4406502;32;32443;-92
2021/12/09 10:54:06;;;;;;;22.50;10.32;;;;;;;3.24;72.28;98756.34;4397583;32;33036;-90
2021/12/09 10:57:37;;;;;;;22.40;9.90;;;;;;;3.19;72.19;98758.25;4412939;32;32673;-92
2021/12/09 11:00:34;;;;;;;26.37;10.48;;;;;;;3.32;72.56;98745.66;4400964;32;33818;-92
2021/12/09 11:03:15;;;;;;;23.00;9.88;;;;;;;3.44;72.25;98760.94;4380456;32;34180;-91
2021/12/09 11:05:52;;;;;;;23.27;9.48;;;;;;;3.47;72.03;98747.81;4408996;32;31983;-91
2021/12/09 11:08:35;;;;;;;20.88;10.98;;;;;;;3.42;72.11;98748.84;4408772;32;34113;-91
2021/12/09 11:11:07;;;;;;;24.02;11.63;;;;;;;3.38;72.58;98755.09;4388955;32;33232;-91
2021/12/09 11:13:39;;;;;;;30.77;12.82;;;;;;;3.49;72.20;98748.59;4397134;32;33071;-92
2021/12/09 11:16:08;;;;;;;22.60;11.10;;;;;;;3.40;72.24;98742.81;4409222;32;32741;-92
2021/12/09 11:19:23;;;;;;;23.10;10.40;;;;;;;3.36;72.37;98738.59;4405603;32;32246;-92
2021/12/09 11:21:57;;;;;;;21.92;11.02;;;;;;;3.57;72.16;98730.94;4396249;32;33209;-92
2021/12/09 11:24:58;;;;;;;21.95;10.45;;;;;;;3.28;72.84;98718.84;4399771;32;33391;-90
2021/12/09 11:27:39;;;;;;;24.83;11.00;;;;;;;3.51;72.38;98707.66;4394917;32;33681;-92
2021/12/09 11:30:33;;;;;;;20.02;9.88;;;;;;;3.33;73.00;98703.91;4329529;33;33106;-92
2021/12/09 11:33:29;;;;;;;21.02;10.00;;;;;;;3.33;73.28;98703.91;4372183;32;34065;-91
2021/12/09 11:36:17;;;;;;;22.42;10.63;;;;;;;3.41;72.67;98695.78;4353317;32;32368;-92
2021/12/09 11:39:10;;;;;;;21.52;10.40;;;;;;;3.44;73.13;98705.28;4380942;32;33373;-92
2021/12/09 11:42:23;;;;;;;20.00;9.40;;;;;;;3.62;72.80;98698.63;4375604;32;32171;-91
2021/12/09 11:45:09;;;;;;;23.08;11.32;;;;;;;3.77;72.15;98711.16;4377512;32;33233;-90
2021/12/09 11:48:00;;;;;;;25.83;10.77;;;;;;;3.51;72.13;98706.78;4402052;32;33082;-90
2021/12/09 11:50:33;;;;;;;26.12;11.18;;;;;;;3.74;71.88;98712.09;4389468;32;32354;-91
2021/12/09 11:53:04;;;;;;;24.65;11.60;;;;;;;3.91;71.67;98700.25;4372394;32;33018;-92
2021/12/09 11:55:46;;;;;;;21.75;10.60;;;;;;;3.78;72.02;98700.66;4390537;32;34197;-90
2021/12/09 11:58:31;;;;;;;22.55;9.52;;;;;;;3.50;73.13;98690.28;4403756;32;32563;-90
2021/12/09 12:13:41;;;;;;;20.00;9.02;;;;;;;3.19;74.57;98674.78;4391047;32;33438;-89
2021/12/09 12:19:19;;;;;;;23.27;10.75;;;;;;;3.57;73.43;98654.41;4417531;32;33230;-90
2021/12/09 12:22:44;;;;;;;22.75;11.73;;;;;;;3.63;73.18;98659.41;4390962;32;32234;-89
2021/12/09 12:28:33;;;;;;;26.52;10.85;;;;;;;3.42;74.49;98665.34;4391386;32;32968;-91
2021/12/09 12:33:57;;;;;;;23.67;10.68;;;;;;;3.05;75.61;98661.31;4390224;32;32815;-91
2021/12/09 12:42:36;;;;;;;28.55;12.73;;;;;;;3.38;74.76;98659.37;4393474;32;33001;-90
2021/12/09 12:48:16;;;;;;;25.42;11.77;;;;;;;3.51;73.87;98665.91;4403262;32;33658;-91
2021/12/09 12:51:08;;;;;;;23.12;11.00;;;;;;;3.65;73.56;98683.69;4396620;32;32896;-91